LIRELICT

Guest
Details From LIRE - Pratica Di Mare
To LICT - Trapani Birgi
Flight Number -
Tags Generated
Created
Modified
Stats Distance 225 nm / 417 km
Max Altitude 0 ft / 0 m
Waypoints 3
Social Downloads 0
Likes 0
Share VATSIM

Download

Looking for another format? Having issues loading an existing format? Contact us
Advertisement - Login to hide

Notes

Generated

Route

LIRE TRP03 LICT

ID Type Via Altitude Latitude Longitude Leg Dist Tot Dist Heading (true) Name
O LIRE APT - 0 ft / 0 m 41.66242˚ 12.43448˚ - 0 nm - -
TRP03 FIX - 0 ft / 0 m 37.92540˚ 12.46204˚ 224 nm 224 nm 180° / 180° -
O LICT APT - 0 ft / 0 m 37.91882˚ 12.47582˚ 0 nm 225 nm 121° / 121° -

Altitude Profile

Advertisement - Login to hide

Weather


0- 5 10 15 20 25 30 35+ Temperature / ° C

Clouds and Precipitation
Forecast for 2017-12-11 12:00 UTC. Updated 23 minutes ago

Ground ~20,000 ft ~40,000 ft Winds

LIRE

Details ICAO LIRE
Name Pratica Di Mare
Region Italy
Timezone Europe/Rome (UTC+1.0)
Stats Elevation 39 ft / 12 m (AMSL)
Location 41.654524° 12.445184°
Runways 2
Magnetic Variation 3.022° E

METAR

LIRE 111055Z 16025KT 9999 SCT020 SCT035 17/14 Q1008 RMK OVC VIS MIN 9999 WIND THR13 18022KT WIND THR31 /////KT BLU

Decode

TAF

Not found

Departure Runways

ID Width Length Bearing (true) Bearing (mag) Surface Threshold Offset Overrun Length
13 148 ft / 45 m 8,340 ft / 2,542 m 130.05° 127.03° Asphalt 500 ft / 152 m 0 ft / 0 m
13L 98 ft / 30 m 8,135 ft / 2,479 m 130.02° 127.00° Asphalt 430 ft / 131 m 0 ft / 0 m
31 148 ft / 45 m 8,340 ft / 2,542 m 310.07° 307.05° Asphalt 350 ft / 107 m 700 ft / 213 m
31R 98 ft / 30 m 8,135 ft / 2,479 m 310.03° 307.01° Asphalt 430 ft / 131 m 0 ft / 0 m

LICT

Details ICAO LICT (TPS)
Name TRAPANI BIRGI
Region Italy
Timezone Europe/Rome (UTC+1.0)
Stats Elevation 24 ft / 7 m (AMSL)
Location 37.911417° 12.487937°
Runways 1
Magnetic Variation 2.835° E

METAR

LICT 111055Z 17026G38KT 9999 FEW025 17/10 Q1013

Decode

TAF

Not found

Destination Runways

ID Width Length Bearing (true) Bearing (mag) Surface Threshold Offset Overrun Length
13 148 ft / 45 m 8,827 ft / 2,691 m 127.75° 124.92° Asphalt 0 ft / 0 m 1,171 ft / 357 m
31 148 ft / 45 m 8,827 ft / 2,691 m 307.76° 304.93° Asphalt 820 ft / 250 m 983 ft / 300 m

Approach Navaids

Runway Type Ident Frequency Range Bearing (true) Bearing (mag) Slope Elevation
31 Localiser TRA 110.95 MHz 18 nm / 33 km 307.75° 304.91° - 13 ft / 4 m (AMSL)
31 Glidescope TRA 110.95 MHz 10 nm / 19 km 307.75° 304.92° 3.00° 61 ft / 19 m (AMSL)
31 DME TRA 110.95 MHz 18 nm / 33 km - - - 7 ft / 2 m (AMSL)

Popular Alternatives